Weather at Tripolis Airport

Public forecast

Using degrees Celsius for public forecast. Weather courtesy of forecast.io.

Closest aviation weather report (METAR) to Tripolis Airport

Report is more than 6 hours old.

Closest report is Kalamata Airport, 33.1 nm (61.3 km) SSW.

2022/11/14 15:20 (retrieved 2 years ago)

LGKL 141520Z 02007KT 9999 FEW025 19/14 Q1021

Closest aviation forecast (TAF) to Tripolis Airport

Forecast is more than 12 hours old.

Closest forecast is Elefsis Airport, 63.4 nm (117.3 km) ENE.

2023/02/22 17:13 (retrieved 1 year ago)

TAF LFSX 221708Z 2217/2315 CNL TAF LGEL 221700Z 2218/2318 VRB05KT 9999 FEW025